sensor_id;sensor_type;location;lat;lon;timestamp;P1;durP1;ratioP1;P2;durP2;ratioP2
4565;SDS011;2295;51.050;14.608;2022-08-01T00:01:30;5.13;;;4.63;;
4565;SDS011;2295;51.050;14.608;2022-08-01T00:03:58;11.60;;;4.60;;
4565;SDS011;2295;51.050;14.608;2022-08-01T00:06:27;5.10;;;4.70;;
4565;SDS011;2295;51.050;14.608;2022-08-01T00:08:55;4.90;;;4.50;;
4565;SDS011;2295;51.050;14.608;2022-08-01T00:11:24;4.27;;;3.97;;
4565;SDS011;2295;51.050;14.608;2022-08-01T00:13:52;4.17;;;3.80;;
4565;SDS011;2295;51.050;14.608;2022-08-01T00:16:21;4.30;;;3.90;;
4565;SDS011;2295;51.050;14.608;2022-08-01T00:18:51;4.50;;;3.73;;
4565;SDS011;2295;51.050;14.608;2022-08-01T00:21:20;5.50;;;3.63;;
4565;SDS011;2295;51.050;14.608;2022-08-01T00:23:48;3.67;;;3.47;;
4565;SDS011;2295;51.050;14.608;2022-08-01T00:26:17;3.47;;;3.03;;
4565;SDS011;2295;51.050;14.608;2022-08-01T00:28:46;3.60;;;3.40;;
4565;SDS011;2295;51.050;14.608;2022-08-01T00:31:15;5.10;;;3.60;;
4565;SDS011;2295;51.050;14.608;2022-08-01T00:33:44;3.83;;;3.10;;
4565;SDS011;2295;51.050;14.608;2022-08-01T00:36:14;5.17;;;3.73;;
4565;SDS011;2295;51.050;14.608;2022-08-01T00:38:42;4.27;;;3.13;;
4565;SDS011;2295;51.050;14.608;2022-08-01T00:41:11;4.43;;;3.63;;
4565;SDS011;2295;51.050;14.608;2022-08-01T00:43:39;3.47;;;3.10;;
4565;SDS011;2295;51.050;14.608;2022-08-01T00:46:08;5.50;;;3.00;;
4565;SDS011;2295;51.050;14.608;2022-08-01T00:48:36;3.97;;;3.60;;
4565;SDS011;2295;51.050;14.608;2022-08-01T00:51:05;5.13;;;3.80;;
4565;SDS011;2295;51.050;14.608;2022-08-01T00:53:35;4.10;;;3.30;;
4565;SDS011;2295;51.050;14.608;2022-08-01T00:56:17;4.40;;;3.07;;
4565;SDS011;2295;51.050;14.608;2022-08-01T00:58:46;3.50;;;3.30;;
4565;SDS011;2295;51.050;14.608;2022-08-01T01:01:15;4.07;;;3.40;;
4565;SDS011;2295;51.050;14.608;2022-08-01T01:03:44;3.63;;;3.33;;
4565;SDS011;2295;51.050;14.608;2022-08-01T01:06:41;4.00;;;3.70;;
4565;SDS011;2295;51.050;14.608;2022-08-01T01:09:17;4.47;;;4.17;;
4565;SDS011;2295;51.050;14.608;2022-08-01T01:11:48;5.10;;;3.70;;
4565;SDS011;2295;51.050;14.608;2022-08-01T01:14:23;4.47;;;4.03;;
4565;SDS011;2295;51.050;14.608;2022-08-01T01:16:55;3.57;;;3.37;;
4565;SDS011;2295;51.050;14.608;2022-08-01T01:19:28;4.20;;;3.83;;
4565;SDS011;2295;51.050;14.608;2022-08-01T01:24:51;4.00;;;3.70;;
4565;SDS011;2295;51.050;14.608;2022-08-01T01:27:28;4.20;;;3.40;;
4565;SDS011;2295;51.050;14.608;2022-08-01T01:30:01;3.40;;;3.20;;
4565;SDS011;2295;51.050;14.608;2022-08-01T01:32:31;5.03;;;4.40;;
4565;SDS011;2295;51.050;14.608;2022-08-01T01:35:01;3.93;;;3.63;;
4565;SDS011;2295;51.050;14.608;2022-08-01T01:37:30;3.83;;;3.53;;
4565;SDS011;2295;51.050;14.608;2022-08-01T01:40:00;4.20;;;3.90;;
4565;SDS011;2295;51.050;14.608;2022-08-01T01:42:29;4.33;;;3.93;;
4565;SDS011;2295;51.050;14.608;2022-08-01T01:45:01;4.07;;;3.83;;
4565;SDS011;2295;51.050;14.608;2022-08-01T01:47:31;5.40;;;4.28;;
4565;SDS011;2295;51.050;14.608;2022-08-01T01:49:59;4.67;;;4.27;;
4565;SDS011;2295;51.050;14.608;2022-08-01T01:52:28;4.63;;;4.03;;
4565;SDS011;2295;51.050;14.608;2022-08-01T01:54:57;4.50;;;4.10;;
4565;SDS011;2295;51.050;14.608;2022-08-01T01:57:27;4.68;;;4.30;;
4565;SDS011;2295;51.050;14.608;2022-08-01T01:59:56;4.37;;;4.03;;
4565;SDS011;2295;51.050;14.608;2022-08-01T02:02:26;11.63;;;4.20;;
4565;SDS011;2295;51.050;14.608;2022-08-01T02:04:56;4.03;;;3.73;;
4565;SDS011;2295;51.050;14.608;2022-08-01T02:07:25;10.63;;;4.40;;
4565;SDS011;2295;51.050;14.608;2022-08-01T02:09:54;3.85;;;3.55;;
4565;SDS011;2295;51.050;14.608;2022-08-01T02:12:23;7.40;;;4.47;;
4565;SDS011;2295;51.050;14.608;2022-08-01T02:14:52;5.07;;;3.97;;
4565;SDS011;2295;51.050;14.608;2022-08-01T02:17:20;4.38;;;3.80;;
4565;SDS011;2295;51.050;14.608;2022-08-01T02:19:53;4.57;;;4.25;;
4565;SDS011;2295;51.050;14.608;2022-08-01T02:22:23;4.10;;;3.90;;
4565;SDS011;2295;51.050;14.608;2022-08-01T02:24:55;7.25;;;4.60;;
4565;SDS011;2295;51.050;14.608;2022-08-01T02:27:27;4.10;;;3.80;;
4565;SDS011;2295;51.050;14.608;2022-08-01T02:29:58;5.07;;;4.65;;
4565;SDS011;2295;51.050;14.608;2022-08-01T02:32:27;4.88;;;4.47;;
4565;SDS011;2295;51.050;14.608;2022-08-01T02:35:00;5.28;;;4.88;;
4565;SDS011;2295;51.050;14.608;2022-08-01T02:37:31;5.28;;;4.88;;
4565;SDS011;2295;51.050;14.608;2022-08-01T02:40:00;5.32;;;4.80;;
4565;SDS011;2295;51.050;14.608;2022-08-01T02:42:29;6.07;;;5.25;;
4565;SDS011;2295;51.050;14.608;2022-08-01T02:44:58;8.48;;;5.20;;
4565;SDS011;2295;51.050;14.608;2022-08-01T02:47:27;5.43;;;5.03;;
4565;SDS011;2295;51.050;14.608;2022-08-01T02:49:57;6.03;;;5.43;;
4565;SDS011;2295;51.050;14.608;2022-08-01T02:52:28;5.50;;;5.10;;
4565;SDS011;2295;51.050;14.608;2022-08-01T02:54:57;8.27;;;5.07;;
4565;SDS011;2295;51.050;14.608;2022-08-01T02:57:26;5.80;;;5.40;;
4565;SDS011;2295;51.050;14.608;2022-08-01T03:00:16;6.90;;;6.30;;
4565;SDS011;2295;51.050;14.608;2022-08-01T03:02:48;6.50;;;5.90;;
4565;SDS011;2295;51.050;14.608;2022-08-01T03:05:21;7.63;;;5.63;;
4565;SDS011;2295;51.050;14.608;2022-08-01T03:07:52;6.85;;;6.15;;
4565;SDS011;2295;51.050;14.608;2022-08-01T03:10:21;7.18;;;6.30;;
4565;SDS011;2295;51.050;14.608;2022-08-01T03:12:51;6.40;;;5.80;;
4565;SDS011;2295;51.050;14.608;2022-08-01T03:15:20;6.53;;;5.68;;
4565;SDS011;2295;51.050;14.608;2022-08-01T03:17:50;11.13;;;5.57;;
4565;SDS011;2295;51.050;14.608;2022-08-01T03:20:20;5.82;;;4.78;;
4565;SDS011;2295;51.050;14.608;2022-08-01T03:22:52;6.47;;;5.82;;
4565;SDS011;2295;51.050;14.608;2022-08-01T03:25:21;7.22;;;6.50;;
4565;SDS011;2295;51.050;14.608;2022-08-01T03:27:51;6.90;;;6.13;;
4565;SDS011;2295;51.050;14.608;2022-08-01T03:30:22;6.90;;;6.20;;
4565;SDS011;2295;51.050;14.608;2022-08-01T03:32:51;6.47;;;5.88;;
4565;SDS011;2295;51.050;14.608;2022-08-01T03:35:20;7.45;;;5.57;;
4565;SDS011;2295;51.050;14.608;2022-08-01T03:37:52;5.72;;;5.32;;
4565;SDS011;2295;51.050;14.608;2022-08-01T03:40:43;6.10;;;5.60;;
4565;SDS011;2295;51.050;14.608;2022-08-01T03:43:15;8.10;;;5.32;;
4565;SDS011;2295;51.050;14.608;2022-08-01T03:45:46;5.82;;;5.32;;
4565;SDS011;2295;51.050;14.608;2022-08-01T03:48:16;5.45;;;5.05;;
4565;SDS011;2295;51.050;14.608;2022-08-01T03:50:46;5.47;;;5.03;;
4565;SDS011;2295;51.050;14.608;2022-08-01T03:53:16;5.40;;;4.85;;
4565;SDS011;2295;51.050;14.608;2022-08-01T03:55:47;4.95;;;4.55;;
4565;SDS011;2295;51.050;14.608;2022-08-01T03:58:16;6.93;;;4.80;;
4565;SDS011;2295;51.050;14.608;2022-08-01T04:00:45;5.50;;;4.97;;
4565;SDS011;2295;51.050;14.608;2022-08-01T04:03:13;9.23;;;4.10;;
4565;SDS011;2295;51.050;14.608;2022-08-01T04:05:42;5.55;;;5.05;;
4565;SDS011;2295;51.050;14.608;2022-08-01T04:08:11;4.95;;;4.55;;
4565;SDS011;2295;51.050;14.608;2022-08-01T04:10:40;5.35;;;4.95;;
4565;SDS011;2295;51.050;14.608;2022-08-01T04:13:09;5.25;;;4.85;;
4565;SDS011;2295;51.050;14.608;2022-08-01T04:15:38;5.63;;;5.13;;
4565;SDS011;2295;51.050;14.608;2022-08-01T04:18:06;5.22;;;4.72;;
4565;SDS011;2295;51.050;14.608;2022-08-01T04:20:35;5.67;;;5.07;;
4565;SDS011;2295;51.050;14.608;2022-08-01T04:23:03;5.47;;;4.97;;
4565;SDS011;2295;51.050;14.608;2022-08-01T04:25:32;5.15;;;4.78;;
4565;SDS011;2295;51.050;14.608;2022-08-01T04:28:03;4.60;;;4.30;;
4565;SDS011;2295;51.050;14.608;2022-08-01T04:30:34;4.40;;;4.20;;
4565;SDS011;2295;51.050;14.608;2022-08-01T04:33:04;4.20;;;3.90;;
4565;SDS011;2295;51.050;14.608;2022-08-01T04:35:34;5.18;;;4.78;;
4565;SDS011;2295;51.050;14.608;2022-08-01T04:38:25;4.85;;;4.50;;
4565;SDS011;2295;51.050;14.608;2022-08-01T04:40:54;4.80;;;4.50;;
4565;SDS011;2295;51.050;14.608;2022-08-01T04:43:35;5.50;;;5.07;;
4565;SDS011;2295;51.050;14.608;2022-08-01T04:46:04;6.47;;;4.60;;
4565;SDS011;2295;51.050;14.608;2022-08-01T04:48:34;5.37;;;4.87;;
4565;SDS011;2295;51.050;14.608;2022-08-01T04:51:04;5.60;;;5.10;;
4565;SDS011;2295;51.050;14.608;2022-08-01T04:53:32;5.50;;;5.00;;
4565;SDS011;2295;51.050;14.608;2022-08-01T04:56:01;4.70;;;4.40;;
4565;SDS011;2295;51.050;14.608;2022-08-01T04:58:30;4.33;;;4.03;;
4565;SDS011;2295;51.050;14.608;2022-08-01T05:00:59;10.10;;;4.60;;
4565;SDS011;2295;51.050;14.608;2022-08-01T05:03:28;4.77;;;4.37;;
4565;SDS011;2295;51.050;14.608;2022-08-01T05:06:02;6.87;;;4.90;;
4565;SDS011;2295;51.050;14.608;2022-08-01T05:08:31;5.07;;;4.57;;
4565;SDS011;2295;51.050;14.608;2022-08-01T05:10:59;6.47;;;5.20;;
4565;SDS011;2295;51.050;14.608;2022-08-01T05:13:28;5.37;;;4.87;;
4565;SDS011;2295;51.050;14.608;2022-08-01T05:15:56;4.60;;;4.30;;
4565;SDS011;2295;51.050;14.608;2022-08-01T05:18:26;4.00;;;3.80;;
4565;SDS011;2295;51.050;14.608;2022-08-01T05:20:56;8.50;;;4.10;;
4565;SDS011;2295;51.050;14.608;2022-08-01T05:23:24;6.60;;;3.90;;
4565;SDS011;2295;51.050;14.608;2022-08-01T05:26:08;4.27;;;3.97;;
4565;SDS011;2295;51.050;14.608;2022-08-01T05:28:40;4.30;;;3.90;;
4565;SDS011;2295;51.050;14.608;2022-08-01T05:31:08;7.00;;;4.47;;
4565;SDS011;2295;51.050;14.608;2022-08-01T05:33:38;11.07;;;4.30;;
4565;SDS011;2295;51.050;14.608;2022-08-01T05:36:07;4.27;;;3.87;;
4565;SDS011;2295;51.050;14.608;2022-08-01T05:38:36;3.80;;;3.50;;
4565;SDS011;2295;51.050;14.608;2022-08-01T05:41:04;7.77;;;4.57;;
4565;SDS011;2295;51.050;14.608;2022-08-01T05:43:32;4.47;;;4.17;;
4565;SDS011;2295;51.050;14.608;2022-08-01T05:46:01;3.57;;;3.37;;
4565;SDS011;2295;51.050;14.608;2022-08-01T05:48:29;4.13;;;3.83;;
4565;SDS011;2295;51.050;14.608;2022-08-01T05:50:59;4.03;;;3.30;;
4565;SDS011;2295;51.050;14.608;2022-08-01T05:53:28;6.60;;;4.30;;
4565;SDS011;2295;51.050;14.608;2022-08-01T05:55:56;4.10;;;3.80;;
4565;SDS011;2295;51.050;14.608;2022-08-01T05:58:25;3.93;;;3.57;;
4565;SDS011;2295;51.050;14.608;2022-08-01T06:00:53;10.80;;;4.10;;
4565;SDS011;2295;51.050;14.608;2022-08-01T06:03:22;5.30;;;3.80;;
4565;SDS011;2295;51.050;14.608;2022-08-01T06:05:51;6.47;;;4.00;;
4565;SDS011;2295;51.050;14.608;2022-08-01T06:08:21;4.30;;;4.00;;
4565;SDS011;2295;51.050;14.608;2022-08-01T06:10:49;8.20;;;3.50;;
4565;SDS011;2295;51.050;14.608;2022-08-01T06:13:18;6.60;;;3.70;;
4565;SDS011;2295;51.050;14.608;2022-08-01T06:15:46;4.27;;;3.10;;
4565;SDS011;2295;51.050;14.608;2022-08-01T06:18:15;5.10;;;3.20;;
4565;SDS011;2295;51.050;14.608;2022-08-01T06:20:44;5.80;;;3.30;;
4565;SDS011;2295;51.050;14.608;2022-08-01T06:23:12;2.80;;;2.70;;
4565;SDS011;2295;51.050;14.608;2022-08-01T06:25:59;2.93;;;2.73;;
4565;SDS011;2295;51.050;14.608;2022-08-01T06:28:28;4.03;;;3.50;;
4565;SDS011;2295;51.050;14.608;2022-08-01T06:30:56;4.10;;;3.30;;
4565;SDS011;2295;51.050;14.608;2022-08-01T06:33:26;3.80;;;3.20;;
4565;SDS011;2295;51.050;14.608;2022-08-01T06:35:54;3.47;;;3.27;;
4565;SDS011;2295;51.050;14.608;2022-08-01T06:38:23;3.30;;;3.10;;
4565;SDS011;2295;51.050;14.608;2022-08-01T06:40:51;4.60;;;3.20;;
4565;SDS011;2295;51.050;14.608;2022-08-01T06:43:21;4.33;;;3.10;;
4565;SDS011;2295;51.050;14.608;2022-08-01T06:45:49;3.80;;;3.50;;
4565;SDS011;2295;51.050;14.608;2022-08-01T06:48:18;3.90;;;3.60;;
4565;SDS011;2295;51.050;14.608;2022-08-01T06:50:46;3.40;;;3.20;;
4565;SDS011;2295;51.050;14.608;2022-08-01T06:53:15;3.60;;;3.30;;
4565;SDS011;2295;51.050;14.608;2022-08-01T06:55:43;5.57;;;4.00;;
4565;SDS011;2295;51.050;14.608;2022-08-01T06:58:12;6.17;;;3.23;;
4565;SDS011;2295;51.050;14.608;2022-08-01T07:00:41;4.13;;;3.57;;
4565;SDS011;2295;51.050;14.608;2022-08-01T07:03:10;6.60;;;3.43;;
4565;SDS011;2295;51.050;14.608;2022-08-01T07:05:38;3.50;;;3.23;;
4565;SDS011;2295;51.050;14.608;2022-08-01T07:08:07;3.07;;;2.87;;
4565;SDS011;2295;51.050;14.608;2022-08-01T07:10:36;3.93;;;3.50;;
4565;SDS011;2295;51.050;14.608;2022-08-01T07:13:04;3.80;;;3.00;;
4565;SDS011;2295;51.050;14.608;2022-08-01T07:15:33;3.40;;;3.10;;
4565;SDS011;2295;51.050;14.608;2022-08-01T07:18:03;3.60;;;3.40;;
4565;SDS011;2295;51.050;14.608;2022-08-01T07:20:31;3.67;;;3.13;;
4565;SDS011;2295;51.050;14.608;2022-08-01T07:23:17;3.40;;;3.13;;
4565;SDS011;2295;51.050;14.608;2022-08-01T07:25:58;2.67;;;2.47;;
4565;SDS011;2295;51.050;14.608;2022-08-01T07:28:27;5.17;;;3.00;;
4565;SDS011;2295;51.050;14.608;2022-08-01T07:30:56;2.47;;;2.27;;
4565;SDS011;2295;51.050;14.608;2022-08-01T07:33:25;7.13;;;2.27;;
4565;SDS011;2295;51.050;14.608;2022-08-01T07:36:14;3.87;;;2.70;;
4565;SDS011;2295;51.050;14.608;2022-08-01T07:38:42;5.13;;;2.40;;
4565;SDS011;2295;51.050;14.608;2022-08-01T07:41:11;2.47;;;2.27;;
4565;SDS011;2295;51.050;14.608;2022-08-01T07:43:40;15.47;;;2.93;;
4565;SDS011;2295;51.050;14.608;2022-08-01T07:46:21;2.80;;;2.60;;
4565;SDS011;2295;51.050;14.608;2022-08-01T07:48:51;8.43;;;2.80;;
4565;SDS011;2295;51.050;14.608;2022-08-01T07:51:20;3.40;;;3.10;;
4565;SDS011;2295;51.050;14.608;2022-08-01T07:53:48;3.10;;;2.90;;
4565;SDS011;2295;51.050;14.608;2022-08-01T07:56:17;5.70;;;3.03;;
4565;SDS011;2295;51.050;14.608;2022-08-01T07:58:45;3.43;;;2.50;;
4565;SDS011;2295;51.050;14.608;2022-08-01T08:01:14;2.73;;;2.50;;
4565;SDS011;2295;51.050;14.608;2022-08-01T08:03:44;2.53;;;2.33;;
4565;SDS011;2295;51.050;14.608;2022-08-01T08:06:14;4.27;;;2.70;;
4565;SDS011;2295;51.050;14.608;2022-08-01T08:08:42;4.23;;;3.10;;
4565;SDS011;2295;51.050;14.608;2022-08-01T08:11:11;3.20;;;2.90;;
4565;SDS011;2295;51.050;14.608;2022-08-01T08:13:39;2.93;;;1.93;;
4565;SDS011;2295;51.050;14.608;2022-08-01T08:16:07;2.93;;;2.73;;
4565;SDS011;2295;51.050;14.608;2022-08-01T08:18:36;2.83;;;2.57;;
4565;SDS011;2295;51.050;14.608;2022-08-01T08:21:05;6.53;;;2.20;;
4565;SDS011;2295;51.050;14.608;2022-08-01T08:23:35;2.87;;;2.60;;
4565;SDS011;2295;51.050;14.608;2022-08-01T08:26:20;2.87;;;2.60;;
4565;SDS011;2295;51.050;14.608;2022-08-01T08:28:51;2.40;;;2.30;;
4565;SDS011;2295;51.050;14.608;2022-08-01T08:31:20;3.77;;;1.97;;
4565;SDS011;2295;51.050;14.608;2022-08-01T08:34:08;3.13;;;1.80;;
4565;SDS011;2295;51.050;14.608;2022-08-01T08:36:37;2.90;;;2.00;;
4565;SDS011;2295;51.050;14.608;2022-08-01T08:39:14;4.13;;;1.73;;
4565;SDS011;2295;51.050;14.608;2022-08-01T08:41:45;6.07;;;1.90;;
4565;SDS011;2295;51.050;14.608;2022-08-01T08:44:15;2.03;;;1.90;;
4565;SDS011;2295;51.050;14.608;2022-08-01T08:46:44;1.73;;;1.63;;
4565;SDS011;2295;51.050;14.608;2022-08-01T08:49:15;1.77;;;1.67;;
4565;SDS011;2295;51.050;14.608;2022-08-01T08:51:46;2.70;;;1.67;;
4565;SDS011;2295;51.050;14.608;2022-08-01T08:54:17;1.53;;;1.43;;
4565;SDS011;2295;51.050;14.608;2022-08-01T08:56:56;6.23;;;1.50;;
4565;SDS011;2295;51.050;14.608;2022-08-01T08:59:25;1.50;;;1.13;;
4565;SDS011;2295;51.050;14.608;2022-08-01T09:01:55;1.10;;;0.97;;
4565;SDS011;2295;51.050;14.608;2022-08-01T09:04:24;1.00;;;1.00;;
4565;SDS011;2295;51.050;14.608;2022-08-01T09:06:53;1.10;;;1.10;;
4565;SDS011;2295;51.050;14.608;2022-08-01T09:09:23;7.30;;;1.20;;
4565;SDS011;2295;51.050;14.608;2022-08-01T09:11:51;1.00;;;1.00;;
4565;SDS011;2295;51.050;14.608;2022-08-01T09:14:30;0.73;;;0.70;;
4565;SDS011;2295;51.050;14.608;2022-08-01T09:17:04;0.90;;;0.90;;
4565;SDS011;2295;51.050;14.608;2022-08-01T09:19:34;1.93;;;1.00;;
4565;SDS011;2295;51.050;14.608;2022-08-01T09:22:07;0.80;;;0.80;;
4565;SDS011;2295;51.050;14.608;2022-08-01T09:24:37;1.10;;;1.00;;
4565;SDS011;2295;51.050;14.608;2022-08-01T09:27:16;3.50;;;0.90;;
4565;SDS011;2295;51.050;14.608;2022-08-01T09:29:48;2.10;;;0.80;;
4565;SDS011;2295;51.050;14.608;2022-08-01T09:32:27;0.87;;;0.70;;
4565;SDS011;2295;51.050;14.608;2022-08-01T09:37:45;0.93;;;0.90;;
4565;SDS011;2295;51.050;14.608;2022-08-01T09:40:15;1.03;;;0.80;;
4565;SDS011;2295;51.050;14.608;2022-08-01T09:42:44;4.90;;;0.80;;
4565;SDS011;2295;51.050;14.608;2022-08-01T09:45:33;0.80;;;0.80;;
4565;SDS011;2295;51.050;14.608;2022-08-01T09:48:09;1.10;;;1.00;;
4565;SDS011;2295;51.050;14.608;2022-08-01T09:50:39;1.20;;;1.00;;
4565;SDS011;2295;51.050;14.608;2022-08-01T09:53:08;0.90;;;0.90;;
4565;SDS011;2295;51.050;14.608;2022-08-01T09:56:01;1.00;;;1.00;;
4565;SDS011;2295;51.050;14.608;2022-08-01T09:58:48;5.40;;;1.30;;
4565;SDS011;2295;51.050;14.608;2022-08-01T10:01:24;1.73;;;1.00;;
4565;SDS011;2295;51.050;14.608;2022-08-01T10:04:06;2.03;;;1.20;;
4565;SDS011;2295;51.050;14.608;2022-08-01T10:06:37;0.90;;;0.90;;
4565;SDS011;2295;51.050;14.608;2022-08-01T10:09:07;1.20;;;1.17;;
4565;SDS011;2295;51.050;14.608;2022-08-01T10:11:37;1.27;;;1.20;;
4565;SDS011;2295;51.050;14.608;2022-08-01T10:14:07;3.73;;;1.20;;
4565;SDS011;2295;51.050;14.608;2022-08-01T10:16:35;1.10;;;1.10;;
4565;SDS011;2295;51.050;14.608;2022-08-01T10:19:05;1.57;;;1.30;;
4565;SDS011;2295;51.050;14.608;2022-08-01T10:21:40;3.37;;;1.13;;
4565;SDS011;2295;51.050;14.608;2022-08-01T10:24:25;1.13;;;1.13;;
4565;SDS011;2295;51.050;14.608;2022-08-01T10:26:57;1.27;;;1.17;;
4565;SDS011;2295;51.050;14.608;2022-08-01T10:29:41;1.27;;;1.17;;
4565;SDS011;2295;51.050;14.608;2022-08-01T10:32:30;1.40;;;1.07;;
4565;SDS011;2295;51.050;14.608;2022-08-01T10:35:00;1.10;;;1.00;;
4565;SDS011;2295;51.050;14.608;2022-08-01T10:37:33;1.57;;;1.10;;
4565;SDS011;2295;51.050;14.608;2022-08-01T10:40:18;8.47;;;1.10;;
4565;SDS011;2295;51.050;14.608;2022-08-01T10:42:58;7.23;;;0.90;;
4565;SDS011;2295;51.050;14.608;2022-08-01T10:45:27;4.40;;;0.77;;
4565;SDS011;2295;51.050;14.608;2022-08-01T10:47:57;0.80;;;0.80;;
4565;SDS011;2295;51.050;14.608;2022-08-01T10:50:29;0.70;;;0.63;;
4565;SDS011;2295;51.050;14.608;2022-08-01T10:53:12;0.90;;;0.70;;
4565;SDS011;2295;51.050;14.608;2022-08-01T10:55:50;0.90;;;0.90;;
4565;SDS011;2295;51.050;14.608;2022-08-01T10:58:25;3.80;;;0.80;;
4565;SDS011;2295;51.050;14.608;2022-08-01T11:01:15;1.10;;;0.70;;
4565;SDS011;2295;51.050;14.608;2022-08-01T11:03:55;0.80;;;0.80;;
4565;SDS011;2295;51.050;14.608;2022-08-01T11:06:28;2.30;;;0.90;;
4565;SDS011;2295;51.050;14.608;2022-08-01T11:09:04;4.63;;;0.80;;
4565;SDS011;2295;51.050;14.608;2022-08-01T11:11:33;1.13;;;0.90;;
4565;SDS011;2295;51.050;14.608;2022-08-01T11:14:23;1.27;;;1.10;;
4565;SDS011;2295;51.050;14.608;2022-08-01T11:17:30;1.77;;;1.20;;
4565;SDS011;2295;51.050;14.608;2022-08-01T11:20:07;1.03;;;1.03;;
4565;SDS011;2295;51.050;14.608;2022-08-01T11:25:25;2.00;;;0.90;;
4565;SDS011;2295;51.050;14.608;2022-08-01T11:28:17;1.17;;;0.93;;
4565;SDS011;2295;51.050;14.608;2022-08-01T11:33:49;1.07;;;0.90;;
4565;SDS011;2295;51.050;14.608;2022-08-01T11:36:20;1.00;;;1.00;;
4565;SDS011;2295;51.050;14.608;2022-08-01T11:39:13;2.40;;;1.00;;
4565;SDS011;2295;51.050;14.608;2022-08-01T11:41:42;2.73;;;1.00;;
4565;SDS011;2295;51.050;14.608;2022-08-01T11:44:12;1.13;;;1.03;;
4565;SDS011;2295;51.050;14.608;2022-08-01T11:46:47;1.10;;;1.10;;
4565;SDS011;2295;51.050;14.608;2022-08-01T11:49:31;1.00;;;1.00;;
4565;SDS011;2295;51.050;14.608;2022-08-01T11:52:02;2.07;;;1.20;;
4565;SDS011;2295;51.050;14.608;2022-08-01T11:54:32;1.37;;;1.00;;
4565;SDS011;2295;51.050;14.608;2022-08-01T11:57:03;1.07;;;1.00;;
4565;SDS011;2295;51.050;14.608;2022-08-01T11:59:36;0.90;;;0.90;;
4565;SDS011;2295;51.050;14.608;2022-08-01T12:02:18;1.20;;;1.10;;
4565;SDS011;2295;51.050;14.608;2022-08-01T12:04:58;1.93;;;1.07;;
4565;SDS011;2295;51.050;14.608;2022-08-01T12:07:28;1.10;;;1.00;;
4565;SDS011;2295;51.050;14.608;2022-08-01T12:09:57;1.10;;;1.10;;
4565;SDS011;2295;51.050;14.608;2022-08-01T12:12:28;1.30;;;1.20;;
4565;SDS011;2295;51.050;14.608;2022-08-01T12:14:57;4.57;;;1.20;;
4565;SDS011;2295;51.050;14.608;2022-08-01T12:17:29;4.83;;;1.07;;
4565;SDS011;2295;51.050;14.608;2022-08-01T12:19:59;2.93;;;1.33;;
4565;SDS011;2295;51.050;14.608;2022-08-01T12:22:28;1.83;;;1.30;;
4565;SDS011;2295;51.050;14.608;2022-08-01T12:24:58;2.40;;;1.20;;
4565;SDS011;2295;51.050;14.608;2022-08-01T12:27:33;1.47;;;1.37;;
4565;SDS011;2295;51.050;14.608;2022-08-01T12:30:03;1.53;;;1.43;;
4565;SDS011;2295;51.050;14.608;2022-08-01T12:32:33;1.70;;;1.30;;
4565;SDS011;2295;51.050;14.608;2022-08-01T12:35:05;1.57;;;1.47;;
4565;SDS011;2295;51.050;14.608;2022-08-01T12:37:34;1.83;;;1.63;;
4565;SDS011;2295;51.050;14.608;2022-08-01T12:40:10;1.67;;;1.50;;
4565;SDS011;2295;51.050;14.608;2022-08-01T12:42:40;3.43;;;1.70;;
4565;SDS011;2295;51.050;14.608;2022-08-01T12:45:09;2.03;;;1.93;;
4565;SDS011;2295;51.050;14.608;2022-08-01T12:47:38;4.83;;;1.53;;
4565;SDS011;2295;51.050;14.608;2022-08-01T12:50:09;2.73;;;1.60;;
4565;SDS011;2295;51.050;14.608;2022-08-01T12:52:39;1.30;;;1.20;;
4565;SDS011;2295;51.050;14.608;2022-08-01T12:55:09;1.57;;;1.47;;
4565;SDS011;2295;51.050;14.608;2022-08-01T12:57:38;2.20;;;1.40;;
4565;SDS011;2295;51.050;14.608;2022-08-01T13:00:12;4.23;;;1.20;;
4565;SDS011;2295;51.050;14.608;2022-08-01T13:02:41;0.80;;;0.80;;
4565;SDS011;2295;51.050;14.608;2022-08-01T13:05:12;1.00;;;0.80;;
4565;SDS011;2295;51.050;14.608;2022-08-01T13:07:42;2.00;;;0.77;;
4565;SDS011;2295;51.050;14.608;2022-08-01T13:10:11;1.90;;;0.60;;
4565;SDS011;2295;51.050;14.608;2022-08-01T13:12:41;0.60;;;0.60;;
4565;SDS011;2295;51.050;14.608;2022-08-01T13:15:20;0.60;;;0.50;;
4565;SDS011;2295;51.050;14.608;2022-08-01T13:17:49;0.87;;;0.63;;
4565;SDS011;2295;51.050;14.608;2022-08-01T13:20:23;0.50;;;0.50;;
4565;SDS011;2295;51.050;14.608;2022-08-01T13:22:52;6.63;;;0.60;;
4565;SDS011;2295;51.050;14.608;2022-08-01T13:25:21;0.67;;;0.57;;
4565;SDS011;2295;51.050;14.608;2022-08-01T13:30:36;2.30;;;0.60;;
4565;SDS011;2295;51.050;14.608;2022-08-01T13:33:04;1.00;;;0.60;;
4565;SDS011;2295;51.050;14.608;2022-08-01T13:35:34;2.00;;;0.63;;
4565;SDS011;2295;51.050;14.608;2022-08-01T13:38:03;0.60;;;0.57;;
4565;SDS011;2295;51.050;14.608;2022-08-01T13:40:31;2.67;;;0.53;;
4565;SDS011;2295;51.050;14.608;2022-08-01T13:43:00;0.60;;;0.50;;
4565;SDS011;2295;51.050;14.608;2022-08-01T13:45:28;0.70;;;0.60;;
4565;SDS011;2295;51.050;14.608;2022-08-01T13:47:58;0.80;;;0.50;;
4565;SDS011;2295;51.050;14.608;2022-08-01T13:50:39;1.63;;;0.50;;
4565;SDS011;2295;51.050;14.608;2022-08-01T13:53:07;0.50;;;0.50;;
4565;SDS011;2295;51.050;14.608;2022-08-01T13:55:36;6.10;;;0.70;;
4565;SDS011;2295;51.050;14.608;2022-08-01T13:58:05;0.60;;;0.57;;
4565;SDS011;2295;51.050;14.608;2022-08-01T14:00:33;0.60;;;0.57;;
4565;SDS011;2295;51.050;14.608;2022-08-01T14:03:02;1.63;;;0.60;;
4565;SDS011;2295;51.050;14.608;2022-08-01T14:05:31;4.20;;;0.60;;
4565;SDS011;2295;51.050;14.608;2022-08-01T14:08:01;0.80;;;0.60;;
4565;SDS011;2295;51.050;14.608;2022-08-01T14:10:30;1.60;;;0.70;;
4565;SDS011;2295;51.050;14.608;2022-08-01T14:12:58;0.70;;;0.70;;
4565;SDS011;2295;51.050;14.608;2022-08-01T14:15:27;1.23;;;0.60;;
4565;SDS011;2295;51.050;14.608;2022-08-01T14:18:05;0.80;;;0.60;;
4565;SDS011;2295;51.050;14.608;2022-08-01T14:20:35;0.80;;;0.73;;
4565;SDS011;2295;51.050;14.608;2022-08-01T14:23:05;1.10;;;0.70;;
4565;SDS011;2295;51.050;14.608;2022-08-01T14:25:35;2.93;;;0.70;;
4565;SDS011;2295;51.050;14.608;2022-08-01T14:28:24;0.70;;;0.70;;
4565;SDS011;2295;51.050;14.608;2022-08-01T14:30:54;2.70;;;0.60;;
4565;SDS011;2295;51.050;14.608;2022-08-01T14:33:23;0.60;;;0.60;;
4565;SDS011;2295;51.050;14.608;2022-08-01T14:35:52;0.70;;;0.70;;
4565;SDS011;2295;51.050;14.608;2022-08-01T14:38:33;0.87;;;0.67;;
4565;SDS011;2295;51.050;14.608;2022-08-01T14:41:02;4.30;;;0.60;;
4565;SDS011;2295;51.050;14.608;2022-08-01T14:43:30;0.70;;;0.60;;
4565;SDS011;2295;51.050;14.608;2022-08-01T14:45:59;0.70;;;0.70;;
4565;SDS011;2295;51.050;14.608;2022-08-01T14:48:29;0.87;;;0.70;;
4565;SDS011;2295;51.050;14.608;2022-08-01T14:50:58;4.53;;;0.70;;
4565;SDS011;2295;51.050;14.608;2022-08-01T14:53:29;4.60;;;0.80;;
4565;SDS011;2295;51.050;14.608;2022-08-01T14:56:02;2.20;;;0.80;;
4565;SDS011;2295;51.050;14.608;2022-08-01T14:58:31;1.07;;;0.80;;
4565;SDS011;2295;51.050;14.608;2022-08-01T15:01:00;0.80;;;0.80;;
4565;SDS011;2295;51.050;14.608;2022-08-01T15:03:30;0.80;;;0.80;;
4565;SDS011;2295;51.050;14.608;2022-08-01T15:05:59;0.80;;;0.80;;
4565;SDS011;2295;51.050;14.608;2022-08-01T15:08:28;0.70;;;0.70;;
4565;SDS011;2295;51.050;14.608;2022-08-01T15:10:58;2.93;;;0.90;;
4565;SDS011;2295;51.050;14.608;2022-08-01T15:13:53;0.70;;;0.70;;
4565;SDS011;2295;51.050;14.608;2022-08-01T15:17:00;0.80;;;0.70;;
4565;SDS011;2295;51.050;14.608;2022-08-01T15:19:53;0.60;;;0.60;;
4565;SDS011;2295;51.050;14.608;2022-08-01T15:22:46;0.60;;;0.60;;
4565;SDS011;2295;51.050;14.608;2022-08-01T15:25:15;1.43;;;0.70;;
4565;SDS011;2295;51.050;14.608;2022-08-01T15:27:43;0.80;;;0.80;;
4565;SDS011;2295;51.050;14.608;2022-08-01T15:30:13;0.70;;;0.70;;
4565;SDS011;2295;51.050;14.608;2022-08-01T15:32:48;0.60;;;0.60;;
4565;SDS011;2295;51.050;14.608;2022-08-01T15:35:17;0.60;;;0.60;;
4565;SDS011;2295;51.050;14.608;2022-08-01T15:37:45;0.70;;;0.70;;
4565;SDS011;2295;51.050;14.608;2022-08-01T15:40:14;0.70;;;0.60;;
4565;SDS011;2295;51.050;14.608;2022-08-01T15:42:42;0.60;;;0.60;;